Time;durP1;ratioP1;P1;durP2;ratioP2;P2;SDS_P1;SDS_P2;PMS_P1;PMS_P2;Temp;Humidity;BMP_temperature;BMP_pressure;BME280_temperature;BME280_humidity;BME280_pressure;Samples;Min_cycle;Max_cycle;Signal;HPM_P1;HPM_P2
2022/10/17 00:01:50;;;;;;;11.73;9.17;;;15.10;99.90;;;;;;5032530;28;20444;-48
2022/10/17 00:04:17;;;;;;;8.63;7.60;;;15.30;99.90;;;;;;5032346;28;20453;-49
2022/10/17 00:06:43;;;;;;;11.13;8.37;;;14.60;99.90;;;;;;5032308;28;20435;-49
2022/10/17 00:09:10;;;;;;;9.13;7.90;;;14.90;99.90;;;;;;5032021;28;20436;-49
2022/10/17 00:11:36;;;;;;;9.80;7.87;;;15.30;99.90;;;;;;5032425;28;20954;-49
2022/10/17 00:14:04;;;;;;;9.60;8.33;;;15.50;99.90;;;;;;5032068;28;20450;-49
2022/10/17 00:16:35;;;;;;;10.60;7.80;;;15.30;99.90;;;;;;5032171;28;20435;-49
2022/10/17 00:19:02;;;;;;;9.20;7.00;;;15.30;99.90;;;;;;5031810;28;20444;-49
2022/10/17 00:21:29;;;;;;;8.60;7.20;;;15.30;99.90;;;;;;5032130;28;20445;-48
2022/10/17 00:23:56;;;;;;;9.33;7.03;;;15.50;99.90;;;;;;5032045;28;20817;-48
2022/10/17 00:26:22;;;;;;;9.23;6.43;;;15.50;99.90;;;;;;5032146;28;20442;-49
2022/10/17 00:28:51;;;;;;;8.00;6.97;;;15.40;99.90;;;;;;5031751;28;20433;-49
2022/10/17 00:31:19;;;;;;;7.27;6.00;;;14.80;99.90;;;;;;5014558;28;20452;-49
2022/10/17 00:33:48;;;;;;;8.73;6.10;;;15.50;99.90;;;;;;5031726;28;20446;-49
2022/10/17 00:36:18;;;;;;;8.90;7.10;;;15.30;99.90;;;;;;5014580;28;20475;-49
2022/10/17 00:38:46;;;;;;;6.67;5.80;;;15.90;99.90;;;;;;5031990;28;20436;-48
2022/10/17 00:41:18;;;;;;;9.93;7.53;;;15.20;99.90;;;;;;5032125;28;20447;-48
2022/10/17 00:43:57;;;;;;;8.33;7.30;;;15.50;99.90;;;;;;5032806;28;20431;-48
2022/10/17 00:46:25;;;;;;;8.13;7.33;;;15.60;99.90;;;;;;5014406;28;20454;-49
2022/10/17 00:48:55;;;;;;;9.50;7.07;;;15.40;99.90;;;;;;5032055;28;20436;-49
2022/10/17 00:51:31;;;;;;;17.00;7.30;;;15.40;99.90;;;;;;5031960;28;20436;-49
2022/10/17 00:53:57;;;;;;;7.50;5.80;;;15.50;99.90;;;;;;5031637;28;20438;-50
2022/10/17 00:56:24;;;;;;;8.80;6.63;;;14.90;99.90;;;;;;5031568;28;20956;-50
2022/10/17 00:58:51;;;;;;;8.40;6.83;;;15.30;99.90;;;;;;5031124;28;20910;-50
2022/10/17 01:01:17;;;;;;;6.77;6.13;;;15.50;99.90;;;;;;5013868;28;20443;-50
2022/10/17 01:03:44;;;;;;;12.90;6.83;;;15.40;99.90;;;;;;5031692;28;20439;-50
2022/10/17 01:06:13;;;;;;;7.23;6.17;;;15.40;99.90;;;;;;5031792;28;20420;-50
2022/10/17 01:08:39;;;;;;;9.90;6.40;;;15.90;99.90;;;;;;5031276;28;20463;-49
2022/10/17 01:11:18;;;;;;;6.37;5.47;;;15.40;99.90;;;;;;5031660;28;20531;-49
2022/10/17 01:13:52;;;;;;;8.03;5.87;;;15.20;99.90;;;;;;5013719;28;20438;-50
2022/10/17 01:16:27;;;;;;;6.20;5.67;;;15.40;99.90;;;;;;5013917;28;20485;-50
2022/10/17 01:19:02;;;;;;;7.93;5.50;;;15.60;99.90;;;;;;5031484;28;20437;-50
2022/10/17 01:21:43;;;;;;;7.23;5.50;;;16.00;99.90;;;;;;5014025;28;20476;-50
2022/10/17 01:24:48;;;;;;;7.93;5.60;;;15.50;99.90;;;;;;5013747;28;20477;-50
2022/10/17 01:27:27;;;;;;;7.20;6.40;;;15.20;99.90;;;;;;5031562;28;20482;-50
2022/10/17 01:30:13;;;;;;;7.50;6.00;;;15.50;99.90;;;;;;5013705;28;20449;-50
2022/10/17 01:32:47;;;;;;;9.20;6.00;;;15.30;99.90;;;;;;5013759;28;20548;-50
2022/10/17 01:35:21;;;;;;;7.13;5.70;;;15.50;99.90;;;;;;5031335;28;20525;-50
2022/10/17 01:37:55;;;;;;;8.17;5.73;;;15.30;99.90;;;;;;5013807;28;20443;-50
2022/10/17 01:40:26;;;;;;;7.00;5.40;;;15.20;99.90;;;;;;5013113;28;20462;-50
2022/10/17 01:43:02;;;;;;;8.73;5.17;;;15.20;99.90;;;;;;5013777;28;20452;-50
2022/10/17 01:45:33;;;;;;;7.83;7.03;;;15.20;99.90;;;;;;5033784;28;20470;-50
2022/10/17 01:48:07;;;;;;;6.70;5.43;;;15.50;99.90;;;;;;5017214;28;20482;-50
2022/10/17 01:50:37;;;;;;;9.00;5.83;;;15.20;99.90;;;;;;5034622;28;20439;-49
2022/10/17 01:53:09;;;;;;;6.53;5.40;;;15.20;99.90;;;;;;5034792;28;20440;-49
2022/10/17 01:55:39;;;;;;;6.30;5.70;;;15.00;99.90;;;;;;5016919;28;20576;-49
2022/10/17 01:58:09;;;;;;;6.53;5.07;;;15.20;99.90;;;;;;5017016;28;20449;-49
2022/10/17 02:00:39;;;;;;;9.03;5.80;;;15.10;99.90;;;;;;5016599;28;20454;-50
2022/10/17 02:03:12;;;;;;;7.33;5.40;;;14.80;99.90;;;;;;5016907;28;20444;-50
2022/10/17 02:05:40;;;;;;;7.80;5.80;;;15.00;99.90;;;;;;5016981;28;20525;-49
2022/10/17 02:08:07;;;;;;;6.57;5.90;;;15.50;99.90;;;;;;5016893;28;20837;-50
2022/10/17 02:10:39;;;;;;;5.33;4.83;;;14.90;99.90;;;;;;5016491;28;20460;-50
2022/10/17 02:13:19;;;;;;;5.93;5.43;;;15.10;99.90;;;;;;5016857;28;21021;-49
2022/10/17 02:15:57;;;;;;;6.30;5.80;;;15.10;99.90;;;;;;5016631;28;20574;-50
2022/10/17 02:18:42;;;;;;;7.53;6.60;;;15.10;99.90;;;;;;5016464;28;20653;-49
2022/10/17 02:21:12;;;;;;;7.70;5.70;;;15.00;99.90;;;;;;5016849;28;21036;-50
2022/10/17 02:23:49;;;;;;;10.10;7.03;;;14.90;99.90;;;;;;5016592;28;20452;-49
2022/10/17 02:26:21;;;;;;;7.40;6.13;;;15.30;99.90;;;;;;5034943;28;20436;-50
2022/10/17 02:28:58;;;;;;;6.80;6.20;;;14.90;99.90;;;;;;5033909;28;20432;-50
2022/10/17 02:31:28;;;;;;;6.70;6.20;;;15.10;99.90;;;;;;5016515;28;20807;-50
2022/10/17 02:34:00;;;;;;;6.73;6.13;;;14.50;99.90;;;;;;5034035;28;20436;-49
2022/10/17 02:36:32;;;;;;;6.93;6.23;;;15.30;99.90;;;;;;5034218;28;20658;-49
2022/10/17 02:39:01;;;;;;;5.60;5.10;;;15.10;99.90;;;;;;5016117;28;20542;-50
2022/10/17 02:41:29;;;;;;;8.60;5.77;;;15.00;99.90;;;;;;5016306;28;20450;-50
2022/10/17 02:43:57;;;;;;;6.00;5.50;;;15.20;99.90;;;;;;5015925;28;20491;-50
2022/10/17 02:46:28;;;;;;;5.50;5.00;;;15.30;99.90;;;;;;5016115;28;20443;-50
2022/10/17 02:49:01;;;;;;;7.43;6.10;;;15.20;99.90;;;;;;5015618;28;20501;-50
2022/10/17 02:51:37;;;;;;;6.43;5.90;;;15.30;99.90;;;;;;5016148;28;20459;-50
2022/10/17 02:54:12;;;;;;;6.50;5.50;;;15.70;99.90;;;;;;5015877;28;20453;-49
2022/10/17 02:56:43;;;;;;;6.20;5.70;;;15.40;99.90;;;;;;5015303;28;20486;-50
2022/10/17 02:59:14;;;;;;;5.60;5.10;;;15.40;99.90;;;;;;5033284;28;20801;-50
2022/10/17 03:01:41;;;;;;;7.00;5.70;;;15.10;99.90;;;;;;5015705;28;20439;-50
2022/10/17 03:04:11;;;;;;;9.40;5.70;;;15.40;99.90;;;;;;5015724;28;21080;-49
2022/10/17 03:06:39;;;;;;;6.00;5.40;;;15.60;99.90;;;;;;5033414;28;20436;-50
2022/10/17 03:09:05;;;;;;;6.30;5.70;;;15.30;99.90;;;;;;5015293;28;20538;-50
2022/10/17 03:11:32;;;;;;;6.30;5.70;;;15.30;99.90;;;;;;5015534;28;20459;-49
2022/10/17 03:13:59;;;;;;;6.00;5.47;;;15.30;99.90;;;;;;5033132;28;21021;-50
2022/10/17 03:16:26;;;;;;;6.90;6.30;;;15.50;99.90;;;;;;5015544;28;20483;-50
2022/10/17 03:18:53;;;;;;;6.63;5.97;;;15.60;99.90;;;;;;5015139;28;20509;-50
2022/10/17 03:21:21;;;;;;;9.27;6.10;;;15.10;99.90;;;;;;5015363;28;20425;-50
2022/10/17 03:23:48;;;;;;;5.97;5.43;;;15.20;99.90;;;;;;5015380;28;20480;-50
2022/10/17 03:26:15;;;;;;;7.43;5.90;;;15.30;99.90;;;;;;5015393;28;20543;-50
2022/10/17 03:28:42;;;;;;;6.87;6.27;;;15.20;99.90;;;;;;5014844;28;20488;-49
2022/10/17 03:31:13;;;;;;;9.63;6.90;;;15.40;99.90;;;;;;5015316;28;20494;-50
2022/10/17 03:33:40;;;;;;;7.80;7.10;;;15.20;99.90;;;;;;5015229;28;20515;-50
2022/10/17 03:36:08;;;;;;;10.10;6.47;;;15.40;99.90;;;;;;5014847;28;20478;-49
2022/10/17 03:38:36;;;;;;;7.33;6.63;;;15.30;99.90;;;;;;5014975;28;20456;-49
2022/10/17 03:41:03;;;;;;;7.00;6.30;;;15.60;99.90;;;;;;5014841;28;20448;-49
2022/10/17 03:43:32;;;;;;;6.30;5.70;;;15.20;99.90;;;;;;5014651;28;20475;-50
2022/10/17 03:46:00;;;;;;;7.57;6.87;;;15.30;99.90;;;;;;5014546;28;21003;-49
2022/10/17 03:48:28;;;;;;;8.90;5.90;;;15.40;99.90;;;;;;5014747;28;21019;-49
2022/10/17 03:50:58;;;;;;;11.83;6.30;;;15.30;99.90;;;;;;5015062;28;20458;-49
2022/10/17 03:53:26;;;;;;;6.70;6.10;;;15.70;99.90;;;;;;5014819;28;20448;-49
2022/10/17 03:55:54;;;;;;;7.40;6.40;;;15.70;99.90;;;;;;5014564;28;20684;-49
2022/10/17 03:58:21;;;;;;;9.60;6.80;;;15.30;99.90;;;;;;5032445;28;20435;-49
2022/10/17 04:00:47;;;;;;;7.90;6.80;;;15.00;99.90;;;;;;5014614;28;20985;-49
2022/10/17 04:03:14;;;;;;;7.77;6.93;;;15.10;99.90;;;;;;5014727;28;20538;-50
2022/10/17 04:05:41;;;;;;;6.63;6.07;;;15.30;99.90;;;;;;5014825;28;20469;-49
2022/10/17 04:08:07;;;;;;;7.87;6.50;;;15.20;99.90;;;;;;5014291;28;20547;-49
2022/10/17 04:10:59;;;;;;;11.23;7.30;;;15.40;99.90;;;;;;5014837;28;20456;-50
2022/10/17 04:13:26;;;;;;;8.30;6.60;;;15.10;99.90;;;;;;5014516;28;20450;-48
2022/10/17 04:15:56;;;;;;;9.03;6.60;;;14.70;99.90;;;;;;5014266;28;21054;-49
2022/10/17 04:18:23;;;;;;;7.73;6.93;;;15.30;99.90;;;;;;5014295;28;20447;-48
2022/10/17 04:20:50;;;;;;;9.67;6.33;;;15.20;99.90;;;;;;5014211;28;20451;-49
2022/10/17 04:23:18;;;;;;;7.90;7.20;;;15.10;99.90;;;;;;5014460;28;20458;-49
2022/10/17 04:25:45;;;;;;;7.60;6.90;;;15.00;99.90;;;;;;5014129;28;20529;-49
2022/10/17 04:28:13;;;;;;;8.03;7.03;;;14.90;99.90;;;;;;5014067;28;20456;-49
2022/10/17 04:30:40;;;;;;;7.67;6.90;;;15.10;99.90;;;;;;5013996;28;20452;-49
2022/10/17 04:33:07;;;;;;;8.70;7.87;;;15.40;99.90;;;;;;5014270;28;20448;-49
2022/10/17 04:35:34;;;;;;;8.30;7.60;;;15.20;99.90;;;;;;5013874;28;20473;-49
2022/10/17 04:38:04;;;;;;;8.67;6.93;;;15.20;99.90;;;;;;5014021;28;20452;-50
2022/10/17 04:40:30;;;;;;;8.90;7.87;;;14.70;99.90;;;;;;5013631;28;20458;-50
2022/10/17 04:42:59;;;;;;;10.10;7.60;;;14.70;99.90;;;;;;5031855;28;20478;-50
2022/10/17 04:45:34;;;;;;;9.47;7.90;;;15.60;99.90;;;;;;5014470;28;20479;-49
2022/10/17 04:48:03;;;;;;;8.60;6.13;;;15.00;99.90;;;;;;5013795;28;20623;-50
2022/10/17 04:50:30;;;;;;;9.47;8.50;;;15.10;99.90;;;;;;5013306;28;20988;-49
2022/10/17 04:53:15;;;;;;;8.13;7.33;;;15.60;99.90;;;;;;5031970;28;20450;-50
2022/10/17 04:55:41;;;;;;;8.67;7.83;;;14.70;99.90;;;;;;5013588;28;20886;-50
2022/10/17 04:58:08;;;;;;;8.87;8.00;;;15.60;99.90;;;;;;5013722;28;20486;-49
2022/10/17 05:00:37;;;;;;;10.07;8.40;;;15.00;99.90;;;;;;5013744;28;20483;-50
2022/10/17 05:03:12;;;;;;;9.23;8.43;;;14.90;99.90;;;;;;5013993;28;20447;-49
2022/10/17 05:05:39;;;;;;;7.70;6.97;;;14.60;99.90;;;;;;5031450;28;20484;-49
2022/10/17 05:08:06;;;;;;;9.00;8.20;;;15.00;99.90;;;;;;5013771;28;20534;-50
2022/10/17 05:10:37;;;;;;;8.80;7.80;;;15.10;99.90;;;;;;5013188;28;20448;-49
2022/10/17 05:13:04;;;;;;;9.40;8.13;;;14.80;99.90;;;;;;5013735;28;20458;-49
2022/10/17 05:15:33;;;;;;;10.50;8.33;;;14.60;99.90;;;;;;5013428;28;20521;-49
2022/10/17 05:18:02;;;;;;;8.73;7.93;;;14.90;99.90;;;;;;5013621;28;20474;-49
2022/10/17 05:20:30;;;;;;;9.33;8.23;;;15.20;99.90;;;;;;5016039;28;20451;-49
2022/10/17 05:22:58;;;;;;;12.63;8.03;;;14.50;99.90;;;;;;5035182;28;20436;-50
2022/10/17 05:25:28;;;;;;;10.10;8.03;;;15.10;99.90;;;;;;5017012;28;20525;-50
2022/10/17 05:27:55;;;;;;;7.83;7.13;;;14.80;99.90;;;;;;5017108;28;20444;-49
2022/10/17 05:30:22;;;;;;;8.77;7.90;;;15.00;99.90;;;;;;5034497;28;20440;-49
2022/10/17 05:32:54;;;;;;;8.40;7.07;;;14.80;99.90;;;;;;5017007;28;20451;-49
2022/10/17 05:35:22;;;;;;;9.60;8.80;;;15.00;99.90;;;;;;5017112;28;20471;-51
2022/10/17 05:37:48;;;;;;;8.97;8.17;;;14.60;99.90;;;;;;5016140;28;20831;-50
2022/10/17 05:40:17;;;;;;;12.00;8.80;;;14.90;99.90;;;;;;5016069;28;20825;-50
2022/10/17 05:42:46;;;;;;;10.23;9.33;;;14.60;99.90;;;;;;5016281;28;20464;-50
2022/10/17 05:45:15;;;;;;;9.30;8.33;;;14.90;99.90;;;;;;5015709;28;20475;-50
2022/10/17 05:47:41;;;;;;;8.90;8.00;;;14.50;99.90;;;;;;5016391;28;20965;-49
2022/10/17 05:50:09;;;;;;;9.90;8.90;;;15.20;99.90;;;;;;5015809;28;20447;-51
2022/10/17 05:52:56;;;;;;;8.30;7.60;;;14.90;99.90;;;;;;5016440;28;20459;-50
2022/10/17 05:55:23;;;;;;;7.50;6.90;;;14.70;99.90;;;;;;5016469;28;21089;-49
2022/10/17 05:57:52;;;;;;;9.83;8.77;;;14.70;99.90;;;;;;5016555;28;20509;-50
2022/10/17 06:00:20;;;;;;;8.23;7.53;;;14.90;99.90;;;;;;5015615;28;20449;-50
2022/10/17 06:02:54;;;;;;;9.40;8.60;;;14.70;99.90;;;;;;5015924;28;20478;-49
2022/10/17 06:05:22;;;;;;;9.30;7.70;;;15.00;99.90;;;;;;5016409;28;20478;-49
2022/10/17 06:07:51;;;;;;;8.13;7.43;;;15.30;99.90;;;;;;5016187;28;20440;-50
2022/10/17 06:10:19;;;;;;;8.47;7.77;;;14.90;99.90;;;;;;5015683;28;20444;-48
2022/10/17 06:12:46;;;;;;;8.83;7.90;;;15.00;99.90;;;;;;5016284;28;20505;-49
2022/10/17 06:15:14;;;;;;;8.90;8.00;;;14.80;99.90;;;;;;5015918;28;20532;-49
2022/10/17 06:17:44;;;;;;;8.13;7.40;;;15.10;99.90;;;;;;5016054;28;20533;-49
2022/10/17 06:20:11;;;;;;;8.57;7.70;;;15.40;99.90;;;;;;5015552;28;20444;-50
2022/10/17 06:22:37;;;;;;;9.13;8.20;;;15.10;99.90;;;;;;5033793;28;20444;-50
2022/10/17 06:25:10;;;;;;;9.17;8.10;;;15.10;99.90;;;;;;5016047;28;20472;-50
2022/10/17 06:27:38;;;;;;;8.57;7.70;;;15.20;99.90;;;;;;5016025;28;20481;-49
2022/10/17 06:30:06;;;;;;;8.10;7.30;;;15.20;99.90;;;;;;5015195;28;20980;-50
2022/10/17 06:32:32;;;;;;;8.30;6.93;;;15.20;99.90;;;;;;5014839;28;20455;-50
2022/10/17 06:34:59;;;;;;;10.00;7.50;;;15.30;99.90;;;;;;5015556;28;20459;-50
2022/10/17 06:37:31;;;;;;;8.47;7.67;;;15.00;99.90;;;;;;5015365;28;20574;-50
2022/10/17 06:39:58;;;;;;;8.70;7.53;;;14.80;99.90;;;;;;5015205;28;20452;-50
2022/10/17 06:42:25;;;;;;;7.97;7.30;;;15.50;99.90;;;;;;5015461;28;21044;-50
2022/10/17 06:45:10;;;;;;;8.73;7.77;;;16.00;99.90;;;;;;5014939;28;20618;-49
2022/10/17 06:47:58;;;;;;;8.70;7.77;;;15.30;99.90;;;;;;5014993;28;20459;-50
2022/10/17 06:50:41;;;;;;;13.70;7.83;;;15.40;99.90;;;;;;5014813;28;20628;-49
2022/10/17 06:53:17;;;;;;;9.03;7.80;;;15.50;99.90;;;;;;5015058;28;20455;-49
2022/10/17 06:55:51;;;;;;;10.47;7.90;;;15.60;99.90;;;;;;5015211;28;20464;-50
2022/10/17 06:58:46;;;;;;;13.03;8.73;;;15.50;99.90;;;;;;5015212;28;20459;-49
2022/10/17 07:01:27;;;;;;;11.73;8.87;;;15.30;99.90;;;;;;5015275;28;20501;-50
2022/10/17 07:03:57;;;;;;;9.10;8.20;;;15.70;99.90;;;;;;5015032;28;20483;-50
2022/10/17 07:06:24;;;;;;;12.33;8.27;;;15.90;99.90;;;;;;5015297;28;20970;-50
2022/10/17 07:08:51;;;;;;;16.77;8.10;;;15.80;99.90;;;;;;5014495;28;20460;-49
2022/10/17 07:11:20;;;;;;;12.53;7.87;;;15.80;99.90;;;;;;5015132;28;20591;-49
2022/10/17 07:13:50;;;;;;;12.73;8.60;;;16.20;99.90;;;;;;5014782;28;20451;-49
2022/10/17 07:16:17;;;;;;;9.77;7.27;;;15.70;99.90;;;;;;5014664;28;20450;-49
2022/10/17 07:18:50;;;;;;;9.53;8.20;;;15.80;99.90;;;;;;5014425;28;20800;-50
2022/10/17 07:21:18;;;;;;;7.43;6.83;;;16.00;99.90;;;;;;5014589;28;20996;-51
2022/10/17 07:23:44;;;;;;;11.67;7.20;;;16.00;99.90;;;;;;5014926;28;20449;-50
2022/10/17 07:26:14;;;;;;;8.00;7.40;;;16.40;99.90;;;;;;5014133;28;20470;-50
2022/10/17 07:28:44;;;;;;;10.67;7.03;;;16.50;99.90;;;;;;5014277;28;20444;-51
2022/10/17 07:31:22;;;;;;;8.13;6.73;;;16.10;99.90;;;;;;5014568;28;20464;-49
2022/10/17 07:33:51;;;;;;;8.13;7.00;;;16.10;99.90;;;;;;5032045;28;20791;-49
2022/10/17 07:36:18;;;;;;;11.37;7.07;;;16.20;99.90;;;;;;5014457;28;20466;-50
2022/10/17 07:38:46;;;;;;;12.90;7.20;;;15.80;99.90;;;;;;5014289;28;20460;-50
2022/10/17 07:41:13;;;;;;;7.60;6.73;;;16.20;99.90;;;;;;5014575;28;20456;-50
2022/10/17 07:43:41;;;;;;;10.90;6.83;;;16.10;99.90;;;;;;5031905;28;20455;-50
2022/10/17 07:46:10;;;;;;;7.03;6.43;;;16.40;99.90;;;;;;5013968;28;20489;-50
2022/10/17 07:48:38;;;;;;;9.60;6.30;;;16.50;99.90;;;;;;5013640;28;20452;-50
2022/10/17 07:51:08;;;;;;;8.37;6.07;;;16.40;99.90;;;;;;5013606;28;20470;-50
2022/10/17 07:53:35;;;;;;;7.10;6.50;;;16.90;99.90;;;;;;5031360;28;20436;-50
2022/10/17 07:56:05;;;;;;;7.00;6.30;;;16.20;99.90;;;;;;5031777;28;20471;-49
2022/10/17 07:58:32;;;;;;;12.00;5.70;;;16.90;99.90;;;;;;5031424;28;20508;-50
2022/10/17 08:01:00;;;;;;;9.40;5.80;;;16.40;99.90;;;;;;5031367;28;20435;-50
2022/10/17 08:03:27;;;;;;;13.00;6.10;;;16.50;99.90;;;;;;5031151;28;20446;-49
2022/10/17 08:05:57;;;;;;;8.10;5.80;;;16.10;99.90;;;;;;5031757;28;20450;-50
2022/10/17 08:08:25;;;;;;;9.50;6.23;;;16.70;99.90;;;;;;5031649;28;20436;-50
2022/10/17 08:10:52;;;;;;;9.57;5.67;;;16.80;99.90;;;;;;5031693;28;20932;-49
2022/10/17 08:13:19;;;;;;;11.20;5.80;;;16.80;99.90;;;;;;5031730;28;20448;-50
2022/10/17 08:15:46;;;;;;;7.13;5.43;;;16.90;99.90;;;;;;5031452;28;20495;-50
2022/10/17 08:18:13;;;;;;;7.20;6.43;;;17.10;99.90;;;;;;5031669;28;20476;-50
2022/10/17 08:20:40;;;;;;;10.20;5.67;;;16.90;99.90;;;;;;5031077;28;20536;-50
2022/10/17 08:23:06;;;;;;;7.83;5.73;;;17.40;99.90;;;;;;5031480;28;20848;-50
2022/10/17 08:25:34;;;;;;;9.80;5.73;;;16.90;99.90;;;;;;5031168;28;20532;-50
2022/10/17 08:28:01;;;;;;;11.40;5.13;;;17.30;99.90;;;;;;5031276;28;20432;-50
2022/10/17 08:30:29;;;;;;;9.10;5.90;;;17.40;99.90;;;;;;5013016;28;20459;-50
2022/10/17 08:32:56;;;;;;;7.47;5.50;;;16.90;99.90;;;;;;5031259;28;20654;-49
2022/10/17 08:35:22;;;;;;;6.50;4.83;;;17.00;99.90;;;;;;5031143;28;20456;-49
2022/10/17 08:37:49;;;;;;;11.00;5.97;;;17.00;99.90;;;;;;5031290;28;20481;-49
2022/10/17 08:40:22;;;;;;;5.57;4.80;;;17.30;99.90;;;;;;5012840;28;20448;-49
2022/10/17 08:43:08;;;;;;;5.53;5.00;;;17.30;99.90;;;;;;5031857;28;20445;-49
2022/10/17 08:45:40;;;;;;;12.40;6.07;;;17.50;99.90;;;;;;5031026;28;20484;-49
2022/10/17 08:48:12;;;;;;;6.57;4.97;;;17.50;99.90;;;;;;5031350;28;20412;-49
2022/10/17 08:50:44;;;;;;;6.00;4.77;;;17.70;99.90;;;;;;5031249;28;20438;-49
2022/10/17 08:53:16;;;;;;;7.60;5.10;;;17.70;99.90;;;;;;5031228;28;20814;-49
2022/10/17 08:55:47;;;;;;;9.10;5.50;;;17.80;99.90;;;;;;5034390;28;20773;-49
2022/10/17 08:58:19;;;;;;;6.70;4.87;;;17.80;99.90;;;;;;5035267;28;20460;-49
2022/10/17 09:00:52;;;;;;;6.73;5.43;;;18.00;99.90;;;;;;5035069;28;20518;-49
2022/10/17 09:03:43;;;;;;;7.43;5.27;;;17.80;99.90;;;;;;5035175;28;20472;-50
2022/10/17 09:06:18;;;;;;;6.73;4.70;;;17.90;99.90;;;;;;5035078;28;20457;-49
2022/10/17 09:08:52;;;;;;;8.77;5.53;;;17.90;99.90;;;;;;5034984;28;20790;-49
2022/10/17 09:11:34;;;;;;;10.80;4.93;;;18.00;99.90;;;;;;5034928;28;20948;-49
2022/10/17 09:14:12;;;;;;;5.67;5.17;;;18.00;99.90;;;;;;5035619;28;20450;-49
2022/10/17 09:16:51;;;;;;;7.83;5.00;;;18.50;99.90;;;;;;5034780;28;20789;-49
2022/10/17 09:19:23;;;;;;;5.93;4.93;;;18.40;99.90;;;;;;5034402;28;20792;-50
2022/10/17 09:21:54;;;;;;;8.63;5.60;;;18.50;99.90;;;;;;5034440;28;20497;-49
2022/10/17 09:24:27;;;;;;;11.77;6.00;;;18.30;99.90;;;;;;5035097;28;20812;-49
2022/10/17 09:26:55;;;;;;;6.33;4.60;;;18.40;99.90;;;;;;5034477;28;20442;-50
2022/10/17 09:29:25;;;;;;;7.73;4.87;;;18.20;99.90;;;;;;5034624;28;20443;-49
2022/10/17 09:31:58;;;;;;;5.00;4.50;;;18.80;99.90;;;;;;5035094;28;20439;-49
2022/10/17 09:34:27;;;;;;;8.80;5.27;;;19.00;99.90;;;;;;5016454;28;20882;-49
2022/10/17 09:36:54;;;;;;;7.80;4.47;;;18.90;99.90;;;;;;5034303;28;20928;-49
2022/10/17 09:39:24;;;;;;;8.17;4.30;;;18.70;99.90;;;;;;5034087;28;20821;-50
2022/10/17 09:41:54;;;;;;;7.00;4.33;;;18.70;99.90;;;;;;5034575;28;20526;-49
2022/10/17 09:44:23;;;;;;;5.23;3.97;;;18.90;99.90;;;;;;5034287;28;20566;-49
2022/10/17 09:47:15;;;;;;;8.50;3.80;;;18.50;99.90;;;;;;5034247;28;20947;-49
2022/10/17 09:49:44;;;;;;;4.80;3.90;;;19.00;99.90;;;;;;5031435;28;20466;-49
2022/10/17 09:52:14;;;;;;;8.83;3.93;;;19.00;99.90;;;;;;5034138;28;20450;-49
2022/10/17 09:54:44;;;;;;;4.53;3.00;;;19.30;99.90;;;;;;5034180;28;20818;-49
2022/10/17 09:57:12;;;;;;;4.73;4.23;;;18.80;99.90;;;;;;5034202;28;20523;-49
2022/10/17 09:59:42;;;;;;;4.50;4.10;;;19.30;99.90;;;;;;5033985;28;20446;-49
2022/10/17 10:02:15;;;;;;;4.70;3.50;;;19.30;99.90;;;;;;5016563;28;20444;-50
2022/10/17 10:04:56;;;;;;;5.53;4.53;;;19.50;99.90;;;;;;5033589;28;20518;-50
2022/10/17 10:07:24;;;;;;;8.93;4.50;;;19.50;99.90;;;;;;5034075;28;20490;-50
2022/10/17 10:09:51;;;;;;;5.57;4.03;;;19.60;99.90;;;;;;5015440;28;20451;-50
2022/10/17 10:12:21;;;;;;;6.10;4.60;;;19.50;99.90;;;;;;5033891;28;20925;-50
2022/10/17 10:14:49;;;;;;;8.30;4.10;;;19.60;99.90;;;;;;5033805;28;20540;-50
2022/10/17 10:17:37;;;;;;;4.20;3.80;;;19.80;99.90;;;;;;5034010;28;20952;-50
2022/10/17 10:20:25;;;;;;;11.97;5.10;;;19.90;99.90;;;;;;5033839;28;20987;-50
2022/10/17 10:23:06;;;;;;;8.43;5.63;;;19.90;99.90;;;;;;5016032;28;20455;-50
2022/10/17 10:25:34;;;;;;;6.33;3.70;;;20.20;99.90;;;;;;5034033;28;20448;-50
2022/10/17 10:28:02;;;;;;;5.60;4.10;;;20.20;99.90;;;;;;5015939;28;20448;-50
2022/10/17 10:30:31;;;;;;;4.63;3.90;;;20.30;99.90;;;;;;5033323;28;20538;-49
2022/10/17 10:33:00;;;;;;;5.27;4.63;;;20.40;99.90;;;;;;5033650;28;20919;-49
2022/10/17 10:35:32;;;;;;;7.13;3.70;;;20.40;99.90;;;;;;5033474;28;20454;-49
2022/10/17 10:38:00;;;;;;;6.87;3.60;;;20.60;99.90;;;;;;5032685;28;20531;-49
2022/10/17 10:40:31;;;;;;;5.43;4.90;;;20.70;99.90;;;;;;5032929;28;20927;-50
2022/10/17 10:42:59;;;;;;;6.70;4.77;;;20.90;99.90;;;;;;5033234;28;20450;-51
2022/10/17 10:45:28;;;;;;;12.53;4.60;;;20.40;99.90;;;;;;5033727;28;20484;-49
2022/10/17 10:47:58;;;;;;;8.53;4.30;;;20.70;99.90;;;;;;5033140;28;20439;-51
2022/10/17 10:50:29;;;;;;;5.70;4.77;;;20.90;99.90;;;;;;5032806;28;20463;-50
2022/10/17 10:53:09;;;;;;;6.00;4.03;;;20.80;99.90;;;;;;5033224;28;20950;-50
2022/10/17 10:55:41;;;;;;;4.10;3.10;;;21.00;99.90;;;;;;5033305;28;20462;-50
2022/10/17 10:58:20;;;;;;;5.87;4.77;;;20.90;99.90;;;;;;5032888;28;20478;-50
2022/10/17 11:00:48;;;;;;;7.20;3.87;;;20.90;99.90;;;;;;5032613;28;20434;-50
2022/10/17 11:03:21;;;;;;;9.03;3.60;;;20.70;99.90;;;;;;5032734;28;20442;-50
2022/10/17 11:05:52;;;;;;;5.30;4.07;;;20.60;99.90;;;;;;5032757;28;20464;-50
2022/10/17 11:08:26;;;;;;;7.97;3.90;;;21.00;99.90;;;;;;5032682;28;20438;-50
2022/10/17 11:11:18;;;;;;;4.60;3.63;;;21.10;99.90;;;;;;5033096;28;20449;-50
2022/10/17 11:13:50;;;;;;;8.80;5.13;;;21.30;99.90;;;;;;5029787;28;20546;-50
2022/10/17 11:16:24;;;;;;;7.70;5.07;;;21.40;99.90;;;;;;5032749;28;20554;-51
2022/10/17 11:18:57;;;;;;;39.77;28.83;;;21.10;99.90;;;;;;5031817;28;20493;-49
2022/10/17 11:21:34;;;;;;;24.83;15.10;;;21.30;99.90;;;;;;5032672;28;20436;-50
2022/10/17 11:24:07;;;;;;;10.77;7.27;;;21.10;99.90;;;;;;5032923;28;20451;-49
2022/10/17 11:26:40;;;;;;;14.03;5.13;;;21.40;99.90;;;;;;5032913;28;20447;-50
2022/10/17 11:29:07;;;;;;;9.00;4.23;;;21.40;99.90;;;;;;5031960;28;20446;-50
2022/10/17 11:31:38;;;;;;;12.00;3.70;;;21.00;99.90;;;;;;5032587;28;20485;-49
2022/10/17 11:34:18;;;;;;;10.80;3.97;;;21.60;99.90;;;;;;5032025;28;20936;-50
2022/10/17 11:36:47;;;;;;;4.97;4.30;;;21.60;99.90;;;;;;5031980;28;20753;-51
2022/10/17 11:39:18;;;;;;;5.90;4.07;;;21.70;99.90;;;;;;5031550;28;20533;-51
2022/10/17 11:41:49;;;;;;;4.63;3.03;;;21.60;99.90;;;;;;5031884;28;20435;-51
2022/10/17 11:44:22;;;;;;;5.53;4.47;;;21.80;99.90;;;;;;5031569;28;20468;-51
2022/10/17 11:46:54;;;;;;;5.70;3.60;;;21.70;99.90;;;;;;5014585;28;20873;-51
2022/10/17 11:49:26;;;;;;;6.83;3.60;;;21.70;99.90;;;;;;5031672;28;20433;-51
2022/10/17 11:52:03;;;;;;;9.67;3.67;;;22.00;99.90;;;;;;5032144;28;20961;-50
2022/10/17 11:54:35;;;;;;;5.63;3.00;;;22.10;99.90;;;;;;5032129;28;20469;-49
2022/10/17 11:57:19;;;;;;;8.03;4.07;;;22.00;99.90;;;;;;5031541;28;20431;-49
2022/10/17 11:59:58;;;;;;;4.43;3.20;;;22.20;99.90;;;;;;5031162;28;20483;-49
2022/10/17 12:02:32;;;;;;;4.90;3.40;;;22.20;99.90;;;;;;5031849;28;20445;-50
2022/10/17 12:05:07;;;;;;;4.50;4.00;;;22.20;99.90;;;;;;5031746;28;20460;-50
2022/10/17 12:07:42;;;;;;;5.10;3.70;;;22.30;99.90;;;;;;5031637;28;20457;-50
2022/10/17 12:10:24;;;;;;;5.83;3.80;;;22.30;99.90;;;;;;5031264;28;20467;-49
2022/10/17 12:12:51;;;;;;;8.93;3.87;;;22.40;99.90;;;;;;5031639;28;20441;-51
2022/10/17 12:15:29;;;;;;;8.47;4.03;;;22.40;99.90;;;;;;5031369;28;20463;-50
2022/10/17 12:17:59;;;;;;;6.03;4.07;;;22.60;99.90;;;;;;5031397;28;20477;-50
2022/10/17 12:20:31;;;;;;;7.27;4.10;;;22.50;99.90;;;;;;5030904;28;20860;-50
2022/10/17 12:23:14;;;;;;;8.13;4.20;;;22.40;99.90;;;;;;5031648;28;20437;-50
2022/10/17 12:25:49;;;;;;;7.10;3.70;;;22.60;99.90;;;;;;5031111;28;20460;-50
2022/10/17 12:28:26;;;;;;;7.60;3.77;;;22.60;99.90;;;;;;5030714;28;20433;-50
2022/10/17 12:30:56;;;;;;;3.40;3.10;;;22.40;99.90;;;;;;5031200;28;20425;-50
2022/10/17 12:33:32;;;;;;;7.07;4.07;;;22.80;99.90;;;;;;5031324;28;20439;-50
2022/10/17 12:36:47;;;;;;;15.03;3.93;;;22.80;99.90;;;;;;5031162;28;20493;-50
2022/10/17 12:39:43;;;;;;;3.93;3.33;;;22.80;99.90;;;;;;5030690;28;20490;-50
2022/10/17 12:42:29;;;;;;;3.70;3.30;;;22.70;99.90;;;;;;5030981;28;20442;-50
2022/10/17 12:44:55;;;;;;;7.70;4.23;;;22.70;99.90;;;;;;5030934;28;20861;-50
2022/10/17 12:47:29;;;;;;;10.80;4.77;;;22.80;99.90;;;;;;5013678;28;20457;-50
2022/10/17 12:49:55;;;;;;;14.77;4.50;;;22.70;99.90;;;;;;5013385;28;20955;-50
2022/10/17 12:52:28;;;;;;;6.03;4.27;;;22.50;99.90;;;;;;5031132;28;20500;-49
2022/10/17 12:55:13;;;;;;;13.83;3.90;;;22.80;99.90;;;;;;5031040;28;20523;-51
2022/10/17 12:57:53;;;;;;;7.57;4.60;;;22.80;99.90;;;;;;5031339;28;20458;-50
2022/10/17 13:00:26;;;;;;;11.27;3.63;;;22.40;99.90;;;;;;5030543;28;20932;-50
2022/10/17 13:02:55;;;;;;;6.90;4.30;;;22.90;99.90;;;;;;5030871;28;20446;-51
2022/10/17 13:05:28;;;;;;;5.37;4.00;;;23.40;99.90;;;;;;5030369;28;20463;-50
2022/10/17 13:07:57;;;;;;;7.80;4.13;;;22.90;99.90;;;;;;5013023;28;20550;-50